KFAR/FAR METAR and TAF weather

Enter ICAO airport designator
Station Type Date Time Source
KFAR METAR 2019/08/22 20:32 UTC NOAA

KFAR 222032Z VRB03KT 10SM FEW055 23/10 A3007 RMK AO2 T02280100


Station Type Date Time Source
KFAR Decoded METAR 2019/08/22 20:32 UTC NOAA

Station name not available
Aug 22, 2019 - 04:32 PM EDT / 2019.08.22 2032 UTC
Wind: Variable at 3 MPH (3 KT):0
Visibility: 10 mile(s):0
Sky conditions: mostly clear
Temperature: 73.0 F (22.8 C)
Dew Point: 50.0 F (10.0 C)
Relative Humidity: 44%
Pressure (altimeter): 30.07 in. Hg (1018 hPa)
ob: KFAR 222032Z VRB03KT 10SM FEW055 23/10 A3007 RMK AO2 T02280100
cycle: 20

Station Type Date Time Source
KFAR TAF 2019/08/22 18:22 UTC NOAA

TAF KFAR 221720Z 2218/2318 14007KT P6SM SKC
FM231500 15014G24KT P6SM SKC

Example: see airport list